sensor_id;sensor_type;location;lat;lon;timestamp;pressure;altitude;pressure_sealevel;temperature;humidity
58385;BME280;44185;47.844;8.966;2023-03-16T00:00:55;96460.00;;;-0.79;100.00
58385;BME280;44185;47.844;8.966;2023-03-16T00:03:21;96464.44;;;-1.07;100.00
58385;BME280;44185;47.844;8.966;2023-03-16T00:05:47;96464.63;;;-1.12;100.00
58385;BME280;44185;47.844;8.966;2023-03-16T00:08:12;96463.41;;;-1.03;100.00
58385;BME280;44185;47.844;8.966;2023-03-16T00:10:38;96459.28;;;-1.08;100.00
58385;BME280;44185;47.844;8.966;2023-03-16T00:13:04;96458.50;;;-1.10;100.00
58385;BME280;44185;47.844;8.966;2023-03-16T00:15:30;96457.03;;;-1.18;100.00
58385;BME280;44185;47.844;8.966;2023-03-16T00:17:56;96453.47;;;-1.15;100.00
58385;BME280;44185;47.844;8.966;2023-03-16T00:20:21;96454.44;;;-1.18;100.00
58385;BME280;44185;47.844;8.966;2023-03-16T00:22:47;96460.91;;;-1.04;100.00
58385;BME280;44185;47.844;8.966;2023-03-16T00:25:13;96458.03;;;-1.22;100.00
58385;BME280;44185;47.844;8.966;2023-03-16T00:27:38;96458.72;;;-1.17;100.00
58385;BME280;44185;47.844;8.966;2023-03-16T00:30:05;96455.38;;;-1.20;100.00
58385;BME280;44185;47.844;8.966;2023-03-16T00:32:33;96454.63;;;-1.24;100.00
58385;BME280;44185;47.844;8.966;2023-03-16T00:34:59;96457.50;;;-1.32;100.00
58385;BME280;44185;47.844;8.966;2023-03-16T00:37:26;96444.78;;;-1.40;100.00
58385;BME280;44185;47.844;8.966;2023-03-16T00:39:53;96446.16;;;-1.29;100.00
58385;BME280;44185;47.844;8.966;2023-03-16T00:42:19;96444.22;;;-1.23;100.00
58385;BME280;44185;47.844;8.966;2023-03-16T00:44:44;96441.63;;;-1.23;100.00
58385;BME280;44185;47.844;8.966;2023-03-16T00:47:10;96434.88;;;-1.28;100.00
58385;BME280;44185;47.844;8.966;2023-03-16T00:49:37;96433.94;;;-1.26;100.00
58385;BME280;44185;47.844;8.966;2023-03-16T00:52:05;96425.22;;;-1.25;100.00
58385;BME280;44185;47.844;8.966;2023-03-16T00:54:31;96417.34;;;-1.47;100.00
58385;BME280;44185;47.844;8.966;2023-03-16T00:56:57;96417.88;;;-1.63;100.00
58385;BME280;44185;47.844;8.966;2023-03-16T00:59:23;96414.97;;;-1.53;100.00
58385;BME280;44185;47.844;8.966;2023-03-16T01:01:49;96417.28;;;-1.46;100.00
58385;BME280;44185;47.844;8.966;2023-03-16T01:04:14;96421.66;;;-1.46;100.00
58385;BME280;44185;47.844;8.966;2023-03-16T01:06:41;96416.47;;;-1.46;100.00
58385;BME280;44185;47.844;8.966;2023-03-16T01:09:06;96425.13;;;-1.47;100.00
58385;BME280;44185;47.844;8.966;2023-03-16T01:11:32;96419.84;;;-1.44;100.00
58385;BME280;44185;47.844;8.966;2023-03-16T01:13:57;96421.66;;;-1.46;100.00
58385;BME280;44185;47.844;8.966;2023-03-16T01:16:22;96413.56;;;-1.64;100.00
58385;BME280;44185;47.844;8.966;2023-03-16T01:18:49;96413.75;;;-1.69;100.00
58385;BME280;44185;47.844;8.966;2023-03-16T01:21:15;96409.50;;;-1.71;100.00
58385;BME280;44185;47.844;8.966;2023-03-16T01:23:41;96413.84;;;-1.72;100.00
58385;BME280;44185;47.844;8.966;2023-03-16T01:26:07;96419.72;;;-1.66;100.00
58385;BME280;44185;47.844;8.966;2023-03-16T01:28:33;96417.13;;;-1.66;100.00
58385;BME280;44185;47.844;8.966;2023-03-16T01:31:00;96410.72;;;-1.82;100.00
58385;BME280;44185;47.844;8.966;2023-03-16T01:33:27;96419.97;;;-1.74;100.00
58385;BME280;44185;47.844;8.966;2023-03-16T01:35:52;96417.00;;;-1.89;100.00
58385;BME280;44185;47.844;8.966;2023-03-16T01:38:19;96413.84;;;-1.72;100.00
58385;BME280;44185;47.844;8.966;2023-03-16T01:40:45;96419.97;;;-1.74;100.00
58385;BME280;44185;47.844;8.966;2023-03-16T01:43:11;96428.63;;;-1.74;100.00
58385;BME280;44185;47.844;8.966;2023-03-16T01:46:09;96421.19;;;-1.85;100.00
58385;BME280;44185;47.844;8.966;2023-03-16T01:48:39;96414.94;;;-1.79;100.00
58385;BME280;44185;47.844;8.966;2023-03-16T01:51:09;96411.56;;;-1.81;100.00
58385;BME280;44185;47.844;8.966;2023-03-16T01:53:37;96408.72;;;-1.73;100.00
58385;BME280;44185;47.844;8.966;2023-03-16T01:56:09;96401.34;;;-1.86;100.00
58385;BME280;44185;47.844;8.966;2023-03-16T01:58:37;96400.78;;;-1.96;100.00
58385;BME280;44185;47.844;8.966;2023-03-16T02:01:04;96395.69;;;-1.99;100.00
58385;BME280;44185;47.844;8.966;2023-03-16T02:03:30;96392.53;;;-2.07;100.00
58385;BME280;44185;47.844;8.966;2023-03-16T02:05:58;96399.47;;;-2.08;100.00
58385;BME280;44185;47.844;8.966;2023-03-16T02:08:26;96392.91;;;-1.93;100.00
58385;BME280;44185;47.844;8.966;2023-03-16T02:10:52;96386.75;;;-1.88;100.00
58385;BME280;44185;47.844;8.966;2023-03-16T02:13:21;96391.53;;;-1.77;100.00
58385;BME280;44185;47.844;8.966;2023-03-16T02:15:46;96388.25;;;-1.83;100.00
58385;BME280;44185;47.844;8.966;2023-03-16T02:18:13;96394.13;;;-2.03;100.00
58385;BME280;44185;47.844;8.966;2023-03-16T02:20:42;96394.06;;;-2.02;100.00
58385;BME280;44185;47.844;8.966;2023-03-16T02:23:15;96385.47;;;-2.04;100.00
58385;BME280;44185;47.844;8.966;2023-03-16T02:25:48;96385.56;;;-2.07;100.00
58385;BME280;44185;47.844;8.966;2023-03-16T02:28:23;96380.06;;;-2.23;100.00
58385;BME280;44185;47.844;8.966;2023-03-16T02:30:51;96383.97;;;-2.38;100.00
58385;BME280;44185;47.844;8.966;2023-03-16T02:33:18;96379.75;;;-2.41;100.00
58385;BME280;44185;47.844;8.966;2023-03-16T02:35:45;96378.28;;;-2.21;100.00
58385;BME280;44185;47.844;8.966;2023-03-16T02:38:10;96388.63;;;-2.21;100.00
58385;BME280;44185;47.844;8.966;2023-03-16T02:40:36;96377.97;;;-2.12;100.00
58385;BME280;44185;47.844;8.966;2023-03-16T02:43:04;96384.88;;;-2.12;100.00
58385;BME280;44185;47.844;8.966;2023-03-16T02:45:35;96379.50;;;-2.33;100.00
58385;BME280;44185;47.844;8.966;2023-03-16T02:48:08;96366.94;;;-2.18;100.00
58385;BME280;44185;47.844;8.966;2023-03-16T02:50:34;96371.38;;;-2.22;100.00
58385;BME280;44185;47.844;8.966;2023-03-16T02:53:00;96373.00;;;-2.18;100.00
58385;BME280;44185;47.844;8.966;2023-03-16T02:55:25;96376.47;;;-2.19;100.00
58385;BME280;44185;47.844;8.966;2023-03-16T02:57:51;96374.03;;;-2.24;100.00
58385;BME280;44185;47.844;8.966;2023-03-16T03:00:17;96369.97;;;-2.32;100.00
58385;BME280;44185;47.844;8.966;2023-03-16T03:02:43;96376.88;;;-2.31;100.00
58385;BME280;44185;47.844;8.966;2023-03-16T03:05:10;96377.00;;;-2.36;100.00
58385;BME280;44185;47.844;8.966;2023-03-16T03:07:35;96381.22;;;-2.33;100.00
58385;BME280;44185;47.844;8.966;2023-03-16T03:10:01;96373.38;;;-2.30;100.00
58385;BME280;44185;47.844;8.966;2023-03-16T03:12:26;96382.84;;;-2.29;100.00
58385;BME280;44185;47.844;8.966;2023-03-16T03:14:52;96372.50;;;-2.31;100.00
58385;BME280;44185;47.844;8.966;2023-03-16T03:17:17;96376.09;;;-2.35;100.00
58385;BME280;44185;47.844;8.966;2023-03-16T03:19:43;96368.19;;;-2.30;100.00
58385;BME280;44185;47.844;8.966;2023-03-16T03:22:10;96370.06;;;-2.36;100.00
58385;BME280;44185;47.844;8.966;2023-03-16T03:24:35;96368.72;;;-2.48;100.00
58385;BME280;44185;47.844;8.966;2023-03-16T03:27:01;96369.94;;;-2.60;100.00
58385;BME280;44185;47.844;8.966;2023-03-16T03:29:26;96367.25;;;-2.55;100.00
58385;BME280;44185;47.844;8.966;2023-03-16T03:31:52;96361.94;;;-2.52;100.00
58385;BME280;44185;47.844;8.966;2023-03-16T03:34:17;96358.53;;;-2.52;100.00
58385;BME280;44185;47.844;8.966;2023-03-16T03:36:43;96366.16;;;-2.49;100.00
58385;BME280;44185;47.844;8.966;2023-03-16T03:39:09;96368.22;;;-2.59;100.00
58385;BME280;44185;47.844;8.966;2023-03-16T03:41:35;96369.13;;;-2.60;100.00
58385;BME280;44185;47.844;8.966;2023-03-16T03:44:00;96363.13;;;-2.62;100.00
58385;BME280;44185;47.844;8.966;2023-03-16T03:46:26;96368.03;;;-2.53;100.00
58385;BME280;44185;47.844;8.966;2023-03-16T03:48:51;96370.00;;;-2.61;100.00
58385;BME280;44185;47.844;8.966;2023-03-16T03:51:17;96369.22;;;-2.63;100.00
58385;BME280;44185;47.844;8.966;2023-03-16T03:53:42;96370.88;;;-2.61;100.00
58385;BME280;44185;47.844;8.966;2023-03-16T03:56:09;96372.50;;;-2.58;100.00
58385;BME280;44185;47.844;8.966;2023-03-16T03:58:35;96366.31;;;-2.54;100.00
58385;BME280;44185;47.844;8.966;2023-03-16T04:01:00;96366.06;;;-2.46;100.00
58385;BME280;44185;47.844;8.966;2023-03-16T04:03:26;96360.97;;;-2.48;100.00
58385;BME280;44185;47.844;8.966;2023-03-16T04:05:51;96367.28;;;-2.57;100.00
58385;BME280;44185;47.844;8.966;2023-03-16T04:08:16;96357.53;;;-2.77;100.00
58385;BME280;44185;47.844;8.966;2023-03-16T04:10:42;96359.31;;;-2.79;100.00
58385;BME280;44185;47.844;8.966;2023-03-16T04:13:09;96355.66;;;-2.72;100.00
58385;BME280;44185;47.844;8.966;2023-03-16T04:15:35;96358.31;;;-3.04;100.00
58385;BME280;44185;47.844;8.966;2023-03-16T04:18:00;96351.66;;;-3.13;100.00
58385;BME280;44185;47.844;8.966;2023-03-16T04:20:25;96352.03;;;-2.95;100.00
58385;BME280;44185;47.844;8.966;2023-03-16T04:22:51;96357.09;;;-2.92;100.00
58385;BME280;44185;47.844;8.966;2023-03-16T04:25:17;96349.00;;;-2.81;100.00
58385;BME280;44185;47.844;8.966;2023-03-16T04:27:42;96349.59;;;-2.72;100.00
58385;BME280;44185;47.844;8.966;2023-03-16T04:30:12;96344.56;;;-2.77;100.00
58385;BME280;44185;47.844;8.966;2023-03-16T04:32:38;96349.91;;;-2.82;100.00
58385;BME280;44185;47.844;8.966;2023-03-16T04:35:05;96337.59;;;-2.75;100.00
58385;BME280;44185;47.844;8.966;2023-03-16T04:37:30;96342.25;;;-2.86;100.00
58385;BME280;44185;47.844;8.966;2023-03-16T04:39:56;96340.50;;;-2.86;100.00
58385;BME280;44185;47.844;8.966;2023-03-16T04:42:21;96339.91;;;-2.94;100.00
58385;BME280;44185;47.844;8.966;2023-03-16T04:44:47;96333.13;;;-2.98;100.00
58385;BME280;44185;47.844;8.966;2023-03-16T04:47:15;96333.91;;;-2.95;100.00
58385;BME280;44185;47.844;8.966;2023-03-16T04:49:41;96325.06;;;-2.89;100.00
58385;BME280;44185;47.844;8.966;2023-03-16T04:52:07;96325.13;;;-2.91;100.00
58385;BME280;44185;47.844;8.966;2023-03-16T04:54:33;96324.03;;;-2.83;100.00
58385;BME280;44185;47.844;8.966;2023-03-16T04:56:59;96321.59;;;-2.88;100.00
58385;BME280;44185;47.844;8.966;2023-03-16T04:59:24;96322.00;;;-3.02;100.00
58385;BME280;44185;47.844;8.966;2023-03-16T05:01:50;96326.22;;;-2.98;100.00
58385;BME280;44185;47.844;8.966;2023-03-16T05:04:17;96318.47;;;-2.99;100.00
58385;BME280;44185;47.844;8.966;2023-03-16T05:06:42;96312.25;;;-2.94;100.00
58385;BME280;44185;47.844;8.966;2023-03-16T05:09:07;96319.28;;;-2.97;100.00
58385;BME280;44185;47.844;8.966;2023-03-16T05:11:34;96319.88;;;-2.89;100.00
58385;BME280;44185;47.844;8.966;2023-03-16T05:13:59;96313.66;;;-2.82;100.00
58385;BME280;44185;47.844;8.966;2023-03-16T05:16:25;96310.22;;;-2.84;100.00
58385;BME280;44185;47.844;8.966;2023-03-16T05:18:50;96301.88;;;-2.92;100.00
58385;BME280;44185;47.844;8.966;2023-03-16T05:21:17;96306.28;;;-2.96;100.00
58385;BME280;44185;47.844;8.966;2023-03-16T05:23:42;96307.28;;;-3.00;100.00
58385;BME280;44185;47.844;8.966;2023-03-16T05:26:08;96311.53;;;-2.97;100.00
58385;BME280;44185;47.844;8.966;2023-03-16T05:28:34;96306.91;;;-2.87;100.00
58385;BME280;44185;47.844;8.966;2023-03-16T05:30:59;96311.28;;;-2.89;100.00
58385;BME280;44185;47.844;8.966;2023-03-16T05:33:25;96309.66;;;-2.92;100.00
58385;BME280;44185;47.844;8.966;2023-03-16T05:35:50;96305.44;;;-2.96;100.00
58385;BME280;44185;47.844;8.966;2023-03-16T05:38:17;96307.06;;;-2.92;100.00
58385;BME280;44185;47.844;8.966;2023-03-16T05:40:42;96316.41;;;-2.88;100.00
58385;BME280;44185;47.844;8.966;2023-03-16T05:43:08;96312.03;;;-2.86;100.00
58385;BME280;44185;47.844;8.966;2023-03-16T05:45:34;96310.19;;;-2.82;100.00
58385;BME280;44185;47.844;8.966;2023-03-16T05:47:59;96310.19;;;-2.82;100.00
58385;BME280;44185;47.844;8.966;2023-03-16T05:50:24;96319.38;;;-2.72;100.00
58385;BME280;44185;47.844;8.966;2023-03-16T05:52:50;96312.47;;;-2.73;100.00
58385;BME280;44185;47.844;8.966;2023-03-16T05:55:17;96307.19;;;-2.68;100.00
58385;BME280;44185;47.844;8.966;2023-03-16T05:57:43;96308.06;;;-2.69;100.00
58385;BME280;44185;47.844;8.966;2023-03-16T06:00:11;96309.97;;;-2.74;100.00
58385;BME280;44185;47.844;8.966;2023-03-16T06:02:37;96302.19;;;-2.74;100.00
58385;BME280;44185;47.844;8.966;2023-03-16T06:05:03;96303.75;;;-2.69;100.00
58385;BME280;44185;47.844;8.966;2023-03-16T06:07:28;96299.00;;;-2.55;100.00
58385;BME280;44185;47.844;8.966;2023-03-16T06:09:54;96305.84;;;-2.53;100.00
58385;BME280;44185;47.844;8.966;2023-03-16T06:12:21;96307.31;;;-2.46;100.00
58385;BME280;44185;47.844;8.966;2023-03-16T06:14:46;96305.28;;;-2.36;100.00
58385;BME280;44185;47.844;8.966;2023-03-16T06:17:11;96303.53;;;-2.35;100.00
58385;BME280;44185;47.844;8.966;2023-03-16T06:19:37;96300.06;;;-2.34;100.00
58385;BME280;44185;47.844;8.966;2023-03-16T06:22:02;96307.25;;;-2.17;100.00
58385;BME280;44185;47.844;8.966;2023-03-16T06:24:28;96311.19;;;-2.05;100.00
58385;BME280;44185;47.844;8.966;2023-03-16T06:26:53;96311.03;;;-2.00;100.00
58385;BME280;44185;47.844;8.966;2023-03-16T06:29:20;96308.38;;;-1.98;100.00
58385;BME280;44185;47.844;8.966;2023-03-16T06:31:46;96316.91;;;-1.95;100.00
58385;BME280;44185;47.844;8.966;2023-03-16T06:34:11;96307.16;;;-1.88;100.00
58385;BME280;44185;47.844;8.966;2023-03-16T06:36:37;96313.69;;;-1.77;100.00
58385;BME280;44185;47.844;8.966;2023-03-16T06:39:02;96321.22;;;-1.70;100.00
58385;BME280;44185;47.844;8.966;2023-03-16T06:41:28;96318.41;;;-1.63;100.00
58385;BME280;44185;47.844;8.966;2023-03-16T06:43:53;96315.44;;;-1.52;100.00
58385;BME280;44185;47.844;8.966;2023-03-16T06:46:20;96314.25;;;-1.43;100.00
58385;BME280;44185;47.844;8.966;2023-03-16T06:48:45;96320.91;;;-1.36;100.00
58385;BME280;44185;47.844;8.966;2023-03-16T06:51:11;96322.09;;;-1.21;100.00
58385;BME280;44185;47.844;8.966;2023-03-16T06:53:36;96327.66;;;-1.08;100.00
58385;BME280;44185;47.844;8.966;2023-03-16T06:56:02;96327.03;;;-0.91;100.00
58385;BME280;44185;47.844;8.966;2023-03-16T06:58:27;96326.50;;;-0.76;100.00
58385;BME280;44185;47.844;8.966;2023-03-16T07:00:53;96336.34;;;-0.62;100.00
58385;BME280;44185;47.844;8.966;2023-03-16T07:03:20;96327.34;;;-0.53;100.00
58385;BME280;44185;47.844;8.966;2023-03-16T07:05:45;96332.28;;;-0.47;100.00
58385;BME280;44185;47.844;8.966;2023-03-16T07:08:11;96329.25;;;-0.36;100.00
58385;BME280;44185;47.844;8.966;2023-03-16T07:10:36;96332.94;;;-0.19;100.00
58385;BME280;44185;47.844;8.966;2023-03-16T07:13:02;96336.19;;;-0.14;100.00
58385;BME280;44185;47.844;8.966;2023-03-16T07:15:27;96340.09;;;-0.04;100.00
58385;BME280;44185;47.844;8.966;2023-03-16T07:17:53;96338.94;;;0.04;100.00
58385;BME280;44185;47.844;8.966;2023-03-16T07:20:20;96347.38;;;0.09;100.00
58385;BME280;44185;47.844;8.966;2023-03-16T07:22:45;96346.50;;;0.10;100.00
58385;BME280;44185;47.844;8.966;2023-03-16T07:25:11;96352.91;;;0.22;100.00
58385;BME280;44185;47.844;8.966;2023-03-16T07:27:36;96347.13;;;0.15;100.00
58385;BME280;44185;47.844;8.966;2023-03-16T07:30:03;96350.47;;;0.40;100.00
58385;BME280;44185;47.844;8.966;2023-03-16T07:32:29;96346.75;;;0.65;100.00
58385;BME280;44185;47.844;8.966;2023-03-16T07:34:54;96356.75;;;0.74;100.00
58385;BME280;44185;47.844;8.966;2023-03-16T07:37:21;96348.63;;;0.82;100.00
58385;BME280;44185;47.844;8.966;2023-03-16T07:39:46;96358.88;;;0.85;100.00
58385;BME280;44185;47.844;8.966;2023-03-16T07:42:12;96354.41;;;0.89;100.00
58385;BME280;44185;47.844;8.966;2023-03-16T07:44:37;96351.44;;;0.97;100.00
58385;BME280;44185;47.844;8.966;2023-03-16T07:47:03;96358.00;;;1.06;100.00
58385;BME280;44185;47.844;8.966;2023-03-16T07:49:28;96350.09;;;1.27;100.00
58385;BME280;44185;47.844;8.966;2023-03-16T07:51:54;96355.09;;;1.31;100.00
58385;BME280;44185;47.844;8.966;2023-03-16T07:54:21;96345.75;;;1.27;100.00
58385;BME280;44185;47.844;8.966;2023-03-16T07:56:46;96361.03;;;1.35;100.00
58385;BME280;44185;47.844;8.966;2023-03-16T07:59:12;96365.88;;;1.43;100.00
58385;BME280;44185;47.844;8.966;2023-03-16T08:01:37;96361.22;;;1.50;100.00
58385;BME280;44185;47.844;8.966;2023-03-16T08:04:03;96355.72;;;1.56;99.59
58385;BME280;44185;47.844;8.966;2023-03-16T08:06:28;96355.66;;;1.75;99.15
58385;BME280;44185;47.844;8.966;2023-03-16T08:08:54;96353.38;;;1.87;97.26
58385;BME280;44185;47.844;8.966;2023-03-16T08:11:21;96356.59;;;1.92;95.85
58385;BME280;44185;47.844;8.966;2023-03-16T08:13:46;96358.06;;;1.98;95.85
58385;BME280;44185;47.844;8.966;2023-03-16T08:16:12;96355.69;;;2.11;95.53
58385;BME280;44185;47.844;8.966;2023-03-16T08:18:37;96346.63;;;2.18;95.08
58385;BME280;44185;47.844;8.966;2023-03-16T08:21:03;96352.44;;;2.24;94.08
58385;BME280;44185;47.844;8.966;2023-03-16T08:23:28;96348.28;;;2.37;94.56
58385;BME280;44185;47.844;8.966;2023-03-16T08:25:55;96341.16;;;2.41;91.86
58385;BME280;44185;47.844;8.966;2023-03-16T08:28:23;96335.03;;;2.58;91.36
58385;BME280;44185;47.844;8.966;2023-03-16T08:30:50;96339.97;;;2.64;89.23
58385;BME280;44185;47.844;8.966;2023-03-16T08:33:16;96336.34;;;2.67;90.25
58385;BME280;44185;47.844;8.966;2023-03-16T08:35:42;96332.41;;;2.76;89.25
58385;BME280;44185;47.844;8.966;2023-03-16T08:38:08;96337.88;;;2.87;89.24
58385;BME280;44185;47.844;8.966;2023-03-16T08:40:34;96328.38;;;2.86;88.54
58385;BME280;44185;47.844;8.966;2023-03-16T08:42:59;96334.59;;;3.00;88.12
58385;BME280;44185;47.844;8.966;2023-03-16T08:45:26;96330.06;;;3.04;88.71
58385;BME280;44185;47.844;8.966;2023-03-16T08:47:51;96324.53;;;3.10;87.35
58385;BME280;44185;47.844;8.966;2023-03-16T08:50:17;96319.63;;;3.20;85.95
58385;BME280;44185;47.844;8.966;2023-03-16T08:52:42;96319.47;;;3.39;87.71
58385;BME280;44185;47.844;8.966;2023-03-16T08:55:09;96314.81;;;3.44;85.48
58385;BME280;44185;47.844;8.966;2023-03-16T08:57:34;96314.84;;;3.59;86.62
58385;BME280;44185;47.844;8.966;2023-03-16T09:00:00;96310.44;;;3.76;84.54
58385;BME280;44185;47.844;8.966;2023-03-16T09:02:27;96299.72;;;3.81;84.55
58385;BME280;44185;47.844;8.966;2023-03-16T09:04:53;96299.72;;;3.81;84.58
58385;BME280;44185;47.844;8.966;2023-03-16T09:07:19;96298.41;;;3.88;84.98
58385;BME280;44185;47.844;8.966;2023-03-16T09:09:44;96305.53;;;3.86;84.74
58385;BME280;44185;47.844;8.966;2023-03-16T09:12:11;96311.63;;;3.70;83.03
58385;BME280;44185;47.844;8.966;2023-03-16T09:14:36;96302.84;;;4.02;85.78
58385;BME280;44185;47.844;8.966;2023-03-16T09:17:02;96310.72;;;4.02;84.67
58385;BME280;44185;47.844;8.966;2023-03-16T09:19:29;96303.59;;;4.04;82.21
58385;BME280;44185;47.844;8.966;2023-03-16T09:21:54;96304.28;;;4.08;81.90
58385;BME280;44185;47.844;8.966;2023-03-16T09:24:19;96299.34;;;4.18;80.96
58385;BME280;44185;47.844;8.966;2023-03-16T09:26:45;96303.09;;;4.28;80.64
58385;BME280;44185;47.844;8.966;2023-03-16T09:29:10;96296.28;;;4.55;80.00
58385;BME280;44185;47.844;8.966;2023-03-16T09:31:36;96298.41;;;4.92;77.84
58385;BME280;44185;47.844;8.966;2023-03-16T09:34:01;96295.69;;;4.94;78.34
58385;BME280;44185;47.844;8.966;2023-03-16T09:36:28;96289.41;;;4.96;79.40
58385;BME280;44185;47.844;8.966;2023-03-16T09:38:53;96292.69;;;5.00;79.23
58385;BME280;44185;47.844;8.966;2023-03-16T09:41:30;96294.88;;;4.93;81.20
58385;BME280;44185;47.844;8.966;2023-03-16T09:44:01;96299.38;;;4.47;81.17
58385;BME280;44185;47.844;8.966;2023-03-16T09:46:31;96305.09;;;4.69;80.78
58385;BME280;44185;47.844;8.966;2023-03-16T09:48:59;96300.22;;;4.77;81.44
58385;BME280;44185;47.844;8.966;2023-03-16T09:51:35;96289.31;;;4.83;81.04
58385;BME280;44185;47.844;8.966;2023-03-16T09:54:04;96289.81;;;4.90;81.31
58385;BME280;44185;47.844;8.966;2023-03-16T09:56:36;96292.81;;;4.98;78.90
58385;BME280;44185;47.844;8.966;2023-03-16T09:59:09;96292.13;;;5.09;81.06
58385;BME280;44185;47.844;8.966;2023-03-16T10:01:41;96289.50;;;5.09;77.79
58385;BME280;44185;47.844;8.966;2023-03-16T10:04:18;96280.66;;;5.25;79.11
58385;BME280;44185;47.844;8.966;2023-03-16T10:06:54;96284.22;;;5.24;77.35
58385;BME280;44185;47.844;8.966;2023-03-16T10:09:31;96289.13;;;5.43;77.34
58385;BME280;44185;47.844;8.966;2023-03-16T10:11:59;96285.81;;;5.54;74.65
58385;BME280;44185;47.844;8.966;2023-03-16T10:14:30;96292.16;;;5.65;72.53
58385;BME280;44185;47.844;8.966;2023-03-16T10:17:00;96282.63;;;5.90;74.24
58385;BME280;44185;47.844;8.966;2023-03-16T10:19:33;96281.44;;;6.09;72.88
58385;BME280;44185;47.844;8.966;2023-03-16T10:22:13;96280.00;;;6.18;72.23
58385;BME280;44185;47.844;8.966;2023-03-16T10:24:43;96278.81;;;6.09;69.14
58385;BME280;44185;47.844;8.966;2023-03-16T10:27:16;96279.78;;;6.47;71.74
58385;BME280;44185;47.844;8.966;2023-03-16T10:29:43;96279.03;;;6.71;69.34
58385;BME280;44185;47.844;8.966;2023-03-16T10:32:12;96277.13;;;6.86;67.63
58385;BME280;44185;47.844;8.966;2023-03-16T10:34:38;96276.81;;;6.78;66.44
58385;BME280;44185;47.844;8.966;2023-03-16T10:37:12;96265.09;;;6.95;66.93
58385;BME280;44185;47.844;8.966;2023-03-16T10:39:38;96262.72;;;7.17;65.60
58385;BME280;44185;47.844;8.966;2023-03-16T10:42:13;96263.22;;;6.97;62.09
58385;BME280;44185;47.844;8.966;2023-03-16T10:44:39;96247.84;;;7.29;62.52
58385;BME280;44185;47.844;8.966;2023-03-16T10:47:05;96242.94;;;7.60;63.45
58385;BME280;44185;47.844;8.966;2023-03-16T10:49:38;96242.03;;;7.73;60.94
58385;BME280;44185;47.844;8.966;2023-03-16T10:52:12;96246.16;;;7.88;60.11
58385;BME280;44185;47.844;8.966;2023-03-16T10:54:39;96243.28;;;7.92;61.67
58385;BME280;44185;47.844;8.966;2023-03-16T10:57:13;96237.34;;;8.01;60.15
58385;BME280;44185;47.844;8.966;2023-03-16T10:59:38;96238.91;;;8.04;60.20
58385;BME280;44185;47.844;8.966;2023-03-16T11:02:14;96235.78;;;8.10;56.65
58385;BME280;44185;47.844;8.966;2023-03-16T11:04:40;96233.69;;;8.38;57.46
58385;BME280;44185;47.844;8.966;2023-03-16T11:07:06;96235.34;;;8.39;55.77
58385;BME280;44185;47.844;8.966;2023-03-16T11:09:34;96218.09;;;8.47;57.23
58385;BME280;44185;47.844;8.966;2023-03-16T11:12:11;96216.75;;;8.52;59.47
58385;BME280;44185;47.844;8.966;2023-03-16T11:14:37;96223.22;;;8.14;59.40
58385;BME280;44185;47.844;8.966;2023-03-16T11:17:05;96209.44;;;7.98;56.68
58385;BME280;44185;47.844;8.966;2023-03-16T11:19:36;96204.03;;;8.23;58.18
58385;BME280;44185;47.844;8.966;2023-03-16T11:22:08;96208.72;;;8.08;56.73
58385;BME280;44185;47.844;8.966;2023-03-16T11:24:44;96200.22;;;8.39;58.37
58385;BME280;44185;47.844;8.966;2023-03-16T11:27:16;96198.19;;;8.42;56.51
58385;BME280;44185;47.844;8.966;2023-03-16T11:29:50;96216.19;;;8.60;54.44
58385;BME280;44185;47.844;8.966;2023-03-16T11:32:24;96210.19;;;8.47;55.11
58385;BME280;44185;47.844;8.966;2023-03-16T11:34:51;96206.47;;;8.49;55.19
58385;BME280;44185;47.844;8.966;2023-03-16T11:37:26;96208.03;;;8.75;55.34
58385;BME280;44185;47.844;8.966;2023-03-16T11:40:01;96200.84;;;8.65;55.08
58385;BME280;44185;47.844;8.966;2023-03-16T11:42:29;96186.94;;;8.75;54.33
58385;BME280;44185;47.844;8.966;2023-03-16T11:45:05;96184.88;;;8.90;53.68
58385;BME280;44185;47.844;8.966;2023-03-16T11:50:38;96171.34;;;8.49;56.58
58385;BME280;44185;47.844;8.966;2023-03-16T11:53:13;96173.38;;;8.45;53.26
58385;BME280;44185;47.844;8.966;2023-03-16T11:55:51;96175.19;;;8.33;48.20
58385;BME280;44185;47.844;8.966;2023-03-16T11:58:31;96174.72;;;8.62;48.63
58385;BME280;44185;47.844;8.966;2023-03-16T12:01:05;96176.03;;;8.68;49.49
58385;BME280;44185;47.844;8.966;2023-03-16T12:03:43;96185.38;;;8.61;45.10
58385;BME280;44185;47.844;8.966;2023-03-16T12:06:21;96185.97;;;8.76;47.79
58385;BME280;44185;47.844;8.966;2023-03-16T12:09:00;96177.94;;;9.22;45.73
58385;BME280;44185;47.844;8.966;2023-03-16T12:11:34;96173.34;;;9.36;49.12
58385;BME280;44185;47.844;8.966;2023-03-16T12:14:13;96177.78;;;9.02;46.16
58385;BME280;44185;47.844;8.966;2023-03-16T12:16:44;96175.75;;;8.94;43.28
58385;BME280;44185;47.844;8.966;2023-03-16T12:19:14;96171.94;;;8.75;41.08
58385;BME280;44185;47.844;8.966;2023-03-16T12:21:44;96171.44;;;8.82;40.89
58385;BME280;44185;47.844;8.966;2023-03-16T12:24:14;96173.31;;;9.47;42.97
58385;BME280;44185;47.844;8.966;2023-03-16T12:26:42;96175.63;;;9.62;38.55
58385;BME280;44185;47.844;8.966;2023-03-16T12:29:13;96167.25;;;9.78;41.10
58385;BME280;44185;47.844;8.966;2023-03-16T12:31:46;96162.13;;;10.08;42.01
58385;BME280;44185;47.844;8.966;2023-03-16T12:34:21;96159.09;;;10.12;39.08
58385;BME280;44185;47.844;8.966;2023-03-16T12:37:12;96156.66;;;10.31;39.69
58385;BME280;44185;47.844;8.966;2023-03-16T12:39:51;96153.78;;;10.44;38.18
58385;BME280;44185;47.844;8.966;2023-03-16T12:42:30;96150.41;;;10.53;39.61
58385;BME280;44185;47.844;8.966;2023-03-16T12:45:01;96152.22;;;10.31;38.04
58385;BME280;44185;47.844;8.966;2023-03-16T12:47:31;96141.41;;;10.44;41.11
58385;BME280;44185;47.844;8.966;2023-03-16T12:50:06;96152.50;;;10.70;39.94
58385;BME280;44185;47.844;8.966;2023-03-16T12:52:38;96144.88;;;10.86;40.61
58385;BME280;44185;47.844;8.966;2023-03-16T12:55:12;96139.91;;;11.23;38.08
58385;BME280;44185;47.844;8.966;2023-03-16T12:57:43;96148.53;;;11.05;40.28
58385;BME280;44185;47.844;8.966;2023-03-16T13:00:10;96139.38;;;11.19;38.02
58385;BME280;44185;47.844;8.966;2023-03-16T13:02:41;96136.44;;;11.32;41.11